Terminal Aerodrome Forecast
Issued by NWS

Home | Current Version | Previous Version | Text Only | Print | Product List | Glossary On
Versions: 1 2 3 4 5 6 7 8 9 10 11 12 13 14 15
118
FTUS46 KLOX 241335 AAB
TAFPRB
TAF AMD
KPRB 241335Z 2414/2512 VRB03KT 1SM BR OVC002
     FM241430 VRB03KT 3SM BR OVC003
     FM241600 VRB03KT P6SM SKC
     FM242000 20012KT P6SM SCT250
     FM250400 VRB03KT P6SM SKC
     FM251100 VRB03KT 2SM BR OVC003=

USA.gov is the U.S. government's official web portal to all federal, state and local government web resources and services.